Time;durP1;ratioP1;P1;durP2;ratioP2;P2;SDS_P1;SDS_P2;PMS_P1;PMS_P2;Temp;Humidity;BMP_temperature;BMP_pressure;BME280_temperature;BME280_humidity;BME280_pressure;Samples;Min_cycle;Max_cycle;Signal;HPM_P1;HPM_P2
2021/05/27 00:00:25;;;;;;;1.37;1.03;;;;;;;9.45;100.00;98214.22;5093762;28;20209;-64
2021/05/27 00:02:52;;;;;;;2.03;1.00;;;;;;;9.44;100.00;98215.16;5093714;28;20221;-64
2021/05/27 00:05:18;;;;;;;1.10;1.00;;;;;;;9.48;100.00;98206.13;5093279;28;20748;-64
2021/05/27 00:07:45;;;;;;;1.37;0.93;;;;;;;9.47;100.00;98215.81;5093424;28;20214;-64
2021/05/27 00:10:16;;;;;;;0.97;0.97;;;;;;;9.50;100.00;98220.06;5091985;28;20207;-64
2021/05/27 00:12:42;;;;;;;1.90;1.10;;;;;;;9.55;100.00;98217.97;5093268;28;20236;-64
2021/05/27 00:15:10;;;;;;;1.10;1.00;;;;;;;9.59;100.00;98222.09;5093594;28;20214;-63
2021/05/27 00:17:36;;;;;;;2.13;1.20;;;;;;;9.57;100.00;98226.63;5093598;28;20230;-63
2021/05/27 00:20:03;;;;;;;2.23;1.40;;;;;;;9.56;100.00;98230.22;5093078;28;20219;-63
2021/05/27 00:22:29;;;;;;;2.63;1.33;;;;;;;9.59;100.00;98219.47;5093329;28;20627;-63
2021/05/27 00:24:55;;;;;;;2.00;1.10;;;;;;;9.66;100.00;98226.06;5093531;28;20299;-63
2021/05/27 00:27:22;;;;;;;1.93;1.07;;;;;;;9.69;100.00;98225.84;5092967;28;20684;-63
2021/05/27 00:29:48;;;;;;;1.27;1.10;;;;;;;9.69;100.00;98225.84;5093037;28;20214;-63
2021/05/27 00:32:14;;;;;;;1.33;1.00;;;;;;;9.69;100.00;98225.84;5093156;28;20262;-63
2021/05/27 00:34:40;;;;;;;1.30;1.20;;;;;;;9.71;100.00;98223.94;5093353;28;20564;-63
2021/05/27 00:37:06;;;;;;;1.80;1.63;;;;;;;9.75;100.00;98223.69;5091564;28;20218;-63
2021/05/27 00:39:32;;;;;;;2.03;1.23;;;;;;;9.73;100.00;98222.09;5093363;28;20210;-63
2021/05/27 00:41:58;;;;;;;1.60;1.50;;;;;;;9.75;100.00;98228.97;5093216;28;20283;-63
2021/05/27 00:44:27;;;;;;;1.97;1.30;;;;;;;9.74;100.00;98229.06;5092883;28;20300;-63
2021/05/27 00:46:54;;;;;;;1.30;1.17;;;;;;;9.72;100.00;98225.66;5093097;28;20238;-63
2021/05/27 00:49:22;;;;;;;2.47;1.40;;;;;;;9.68;100.00;98230.28;5095473;28;20221;-63
2021/05/27 00:51:49;;;;;;;1.77;1.17;;;;;;;9.68;100.00;98234.72;5097257;28;20210;-63
2021/05/27 00:54:16;;;;;;;2.27;1.10;;;;;;;9.68;100.00;98232.09;5097282;28;20207;-63
2021/05/27 00:56:43;;;;;;;1.40;1.30;;;;;;;9.68;100.00;98229.44;5097033;28;20207;-63
2021/05/27 00:59:10;;;;;;;1.20;1.07;;;;;;;9.71;100.00;98237.16;5096518;28;20689;-63
2021/05/27 01:01:37;;;;;;;1.93;1.20;;;;;;;9.67;100.00;98239.13;5094904;28;20217;-64
2021/05/27 01:04:03;;;;;;;1.27;1.10;;;;;;;9.65;100.00;98234.91;5096788;28;20206;-62
2021/05/27 01:06:29;;;;;;;1.50;1.40;;;;;;;9.64;100.00;98238.50;5096766;28;20236;-64
2021/05/27 01:08:56;;;;;;;1.40;1.30;;;;;;;9.62;100.00;98240.38;5096923;28;20255;-63
2021/05/27 01:11:22;;;;;;;1.53;1.30;;;;;;;9.57;100.00;98247.75;5096615;28;20214;-64
2021/05/27 01:13:49;;;;;;;2.90;1.40;;;;;;;9.62;100.00;98240.38;5096519;28;20206;-65
2021/05/27 01:16:16;;;;;;;2.50;1.20;;;;;;;9.63;100.00;98245.56;5097007;28;20219;-63
2021/05/27 01:18:43;;;;;;;1.70;1.37;;;;;;;9.65;100.00;98245.47;5096659;28;20572;-63
2021/05/27 01:21:09;;;;;;;2.20;1.50;;;;;;;9.58;100.00;98236.25;5096836;28;20237;-63
2021/05/27 01:23:36;;;;;;;3.50;1.40;;;;;;;9.52;100.00;98234.84;5096451;28;20210;-63
2021/05/27 01:26:05;;;;;;;1.53;1.30;;;;;;;9.51;100.00;98232.31;5096271;28;20234;-63
2021/05/27 01:28:33;;;;;;;1.70;1.40;;;;;;;9.45;100.00;98233.56;5094933;28;20272;-63
2021/05/27 01:31:00;;;;;;;2.27;1.73;;;;;;;9.42;100.00;98244.28;5096582;28;20221;-63
2021/05/27 01:33:27;;;;;;;2.13;1.33;;;;;;;9.39;100.00;98238.34;5096607;28;20211;-63
2021/05/27 01:35:54;;;;;;;1.97;1.20;;;;;;;9.33;100.00;98244.88;5096636;28;20214;-63
2021/05/27 01:38:21;;;;;;;1.73;1.40;;;;;;;9.30;100.00;98245.03;5096595;28;21284;-64
2021/05/27 01:40:49;;;;;;;1.40;1.20;;;;;;;9.32;100.00;98250.22;5096156;28;20585;-63
2021/05/27 01:43:15;;;;;;;1.87;1.23;;;;;;;9.28;100.00;98257.50;5094656;28;20246;-63
2021/05/27 01:45:42;;;;;;;1.40;1.10;;;;;;;9.19;100.00;98254.56;5094914;28;20215;-63
2021/05/27 01:48:09;;;;;;;1.77;1.47;;;;;;;9.20;100.00;98253.63;5094877;28;20216;-64
2021/05/27 01:50:35;;;;;;;1.97;1.23;;;;;;;9.15;100.00;98245.16;5094598;28;20206;-64
2021/05/27 01:53:03;;;;;;;1.90;1.43;;;;;;;9.18;100.00;98252.88;5094963;28;20260;-64
2021/05/27 01:55:31;;;;;;;1.50;1.30;;;;;;;9.18;100.00;98250.25;5093263;28;20215;-65
2021/05/27 01:57:58;;;;;;;1.40;1.27;;;;;;;9.22;100.00;98242.03;5094575;28;20704;-65
2021/05/27 02:00:25;;;;;;;3.27;2.77;;;;;;;9.26;100.00;98240.06;5094397;28;20628;-64
2021/05/27 02:02:51;;;;;;;2.07;1.87;;;;;;;9.25;100.00;98251.56;5094815;28;20259;-64
2021/05/27 02:05:17;;;;;;;1.90;1.80;;;;;;;9.24;100.00;98249.88;5094763;28;20309;-64
2021/05/27 02:07:43;;;;;;;1.40;1.30;;;;;;;9.22;100.00;98255.22;5094379;28;20603;-64
2021/05/27 02:10:11;;;;;;;1.87;1.10;;;;;;;9.22;100.00;98252.59;5094685;28;20211;-64
2021/05/27 02:12:38;;;;;;;2.07;1.17;;;;;;;9.19;100.00;98252.75;5094591;28;20214;-64
2021/05/27 02:15:07;;;;;;;1.93;1.40;;;;;;;9.12;100.00;98256.72;5094379;28;20687;-64
2021/05/27 02:17:33;;;;;;;1.40;1.30;;;;;;;9.05;100.00;98254.59;5094460;28;20202;-63
2021/05/27 02:20:00;;;;;;;1.97;1.30;;;;;;;9.00;100.00;98259.28;5092760;28;20255;-64
2021/05/27 02:22:26;;;;;;;1.60;1.50;;;;;;;9.02;100.00;98265.28;5094555;28;20616;-64
2021/05/27 02:24:52;;;;;;;2.20;1.83;;;;;;;8.97;100.00;98256.81;5094108;28;20211;-64
2021/05/27 02:27:18;;;;;;;2.53;1.70;;;;;;;8.97;100.00;98262.09;5094276;28;20283;-64
2021/05/27 02:29:45;;;;;;;1.93;1.60;;;;;;;8.94;100.00;98259.66;5094355;28;20213;-64
2021/05/27 02:32:12;;;;;;;2.03;1.70;;;;;;;8.90;100.00;98255.50;5094307;28;20207;-64
2021/05/27 02:34:38;;;;;;;2.57;1.70;;;;;;;8.83;100.00;98264.72;5093960;28;20691;-63
2021/05/27 02:37:04;;;;;;;2.00;1.60;;;;;;;8.71;100.00;98265.44;5094229;28;20596;-63
2021/05/27 02:39:30;;;;;;;1.70;1.53;;;;;;;8.71;100.00;98262.81;5094233;28;20593;-64
2021/05/27 02:41:56;;;;;;;3.13;1.40;;;;;;;8.66;100.00;98262.25;5056518;28;1082765;-63
2021/05/27 02:44:22;;;;;;;1.90;1.70;;;;;;;8.61;100.00;98259.03;5095201;28;20463;-64
2021/05/27 02:46:48;;;;;;;1.70;1.50;;;;;;;8.60;100.00;98262.59;5093478;28;20230;-63
2021/05/27 02:49:15;;;;;;;2.93;1.60;;;;;;;8.59;100.00;98268.81;5094824;28;20263;-63
2021/05/27 02:51:41;;;;;;;1.87;1.63;;;;;;;8.60;100.00;98265.22;5094916;28;20226;-64
2021/05/27 02:54:07;;;;;;;2.17;1.60;;;;;;;8.55;100.00;98264.66;5094680;28;20589;-64
2021/05/27 02:56:33;;;;;;;2.30;1.67;;;;;;;8.48;100.00;98268.59;5095016;28;20590;-64
2021/05/27 02:58:59;;;;;;;2.33;1.90;;;;;;;8.39;100.00;98262.06;5094917;28;20252;-63
2021/05/27 03:01:25;;;;;;;1.97;1.60;;;;;;;8.30;100.00;98259.13;5094934;28;20232;-62
2021/05/27 03:03:51;;;;;;;2.53;1.67;;;;;;;8.16;100.00;98259.91;5094576;28;20687;-63
2021/05/27 03:06:18;;;;;;;1.87;1.70;;;;;;;8.05;100.00;98264.94;5094649;28;20245;-63
2021/05/27 03:08:44;;;;;;;2.23;2.03;;;;;;;7.98;100.00;98263.59;5094545;28;20210;-62
2021/05/27 03:11:10;;;;;;;2.20;1.80;;;;;;;7.92;100.00;98263.09;5093478;28;20253;-63
2021/05/27 03:13:36;;;;;;;2.33;1.93;;;;;;;7.82;100.00;98252.22;5092964;28;20219;-63
2021/05/27 03:16:03;;;;;;;2.80;1.90;;;;;;;7.76;100.00;98256.97;5094523;28;20267;-63
2021/05/27 03:18:30;;;;;;;2.50;2.00;;;;;;;7.71;100.00;98256.41;5094328;28;20217;-63
2021/05/27 03:20:57;;;;;;;2.47;2.27;;;;;;;7.67;100.00;98257.50;5094339;28;20210;-63
2021/05/27 03:23:24;;;;;;;2.07;1.97;;;;;;;7.60;100.00;98266.66;5094141;28;20733;-63
2021/05/27 03:25:50;;;;;;;2.33;1.90;;;;;;;7.53;100.00;98265.31;5094051;28;20210;-62
2021/05/27 03:28:16;;;;;;;2.67;2.37;;;;;;;7.55;100.00;98258.19;5094091;28;20214;-62
2021/05/27 03:30:42;;;;;;;2.63;2.13;;;;;;;7.52;100.00;98258.31;5094326;28;20230;-63
2021/05/27 03:33:08;;;;;;;3.97;2.30;;;;;;;7.48;100.00;98256.81;5093913;28;20678;-62
2021/05/27 03:35:34;;;;;;;3.63;2.47;;;;;;;7.49;100.00;98248.00;5094215;28;20204;-62
2021/05/27 03:38:00;;;;;;;3.17;2.30;;;;;;;7.43;100.00;98243.94;5092481;28;20210;-63
2021/05/27 03:40:27;;;;;;;2.73;2.30;;;;;;;7.41;100.00;98239.69;5094068;28;20247;-65
2021/05/27 03:42:55;;;;;;;2.67;2.40;;;;;;;7.40;100.00;98245.84;5093703;28;20248;-65
2021/05/27 03:45:22;;;;;;;2.87;2.27;;;;;;;7.37;100.00;98248.66;5094054;28;20575;-65
2021/05/27 03:47:49;;;;;;;2.30;2.10;;;;;;;7.29;100.00;98241.19;5093973;28;20659;-66
2021/05/27 03:50:17;;;;;;;2.90;2.57;;;;;;;7.32;100.00;98246.28;5094158;28;20210;-64
2021/05/27 03:52:43;;;;;;;2.63;2.40;;;;;;;7.40;100.00;98253.75;5093625;28;20684;-65
2021/05/27 03:55:12;;;;;;;2.37;2.17;;;;;;;7.46;100.00;98253.41;5093696;28;20212;-65
2021/05/27 03:57:39;;;;;;;2.60;2.40;;;;;;;7.49;100.00;98253.25;5093777;28;20231;-65
2021/05/27 04:02:52;;;;;;;2.33;2.13;;;;;;;7.45;100.00;98252.56;5093501;28;20251;-64
2021/05/27 04:08:05;;;;;;;2.87;2.37;;;;;;;7.45;100.00;98262.22;5093330;28;20304;-63
2021/05/27 04:10:32;;;;;;;2.63;2.40;;;;;;;7.51;100.00;98259.25;5093481;28;20267;-63
2021/05/27 04:12:59;;;;;;;2.87;2.50;;;;;;;7.55;100.00;98266.06;5093211;28;20216;-64
2021/05/27 04:15:27;;;;;;;2.50;2.30;;;;;;;7.57;100.00;98258.94;5093459;28;20220;-63
2021/05/27 04:17:56;;;;;;;2.73;2.53;;;;;;;7.57;100.00;98261.56;5093151;28;20235;-64
2021/05/27 04:20:23;;;;;;;2.93;2.73;;;;;;;7.60;100.00;98256.16;5093245;28;20224;-64
2021/05/27 04:22:50;;;;;;;4.20;2.90;;;;;;;7.65;100.00;98260.22;5093074;28;20680;-63
2021/05/27 04:25:18;;;;;;;2.90;2.60;;;;;;;7.66;100.00;98256.63;5093526;28;20310;-63
2021/05/27 04:27:44;;;;;;;3.70;2.60;;;;;;;7.75;100.00;98271.94;5093370;28;20593;-63
2021/05/27 04:30:15;;;;;;;3.07;2.37;;;;;;;7.77;100.00;98270.03;5091345;28;20208;-63
2021/05/27 04:32:56;;;;;;;2.70;2.50;;;;;;;7.81;100.00;98265.47;5093307;28;20225;-63
2021/05/27 04:35:30;;;;;;;3.37;2.77;;;;;;;7.92;100.00;98271.84;5093245;28;20217;-63
2021/05/27 04:37:59;;;;;;;3.00;2.70;;;;;;;7.94;100.00;98283.13;5093312;28;20209;-63
2021/05/27 04:40:26;;;;;;;3.10;2.80;;;;;;;8.07;100.00;98283.25;5093343;28;20210;-63
2021/05/27 04:42:53;;;;;;;3.10;2.80;;;;;;;8.80;100.00;98280.69;5093250;28;20237;-62
2021/05/27 04:45:20;;;;;;;2.77;2.57;;;;;;;9.77;100.00;98287.75;5093071;28;20627;-63
2021/05/27 04:47:46;;;;;;;3.13;2.77;;;;;;;10.01;100.00;98285.34;5093203;28;20237;-63
2021/05/27 04:50:13;;;;;;;2.77;2.27;;;;;;;9.65;100.00;98283.25;5092850;28;20208;-64
2021/05/27 04:52:39;;;;;;;3.27;2.10;;;;;;;9.51;100.00;98291.19;5093066;28;20601;-62
2021/05/27 04:55:07;;;;;;;2.97;2.10;;;;;;;9.44;100.00;98291.66;5093055;28;20206;-63
2021/05/27 04:57:33;;;;;;;3.40;2.37;;;;;;;9.46;100.00;98292.41;5091451;28;20211;-63
2021/05/27 04:59:59;;;;;;;3.67;2.20;;;;;;;9.52;100.00;98297.31;5093005;28;20218;-63
2021/05/27 05:02:27;;;;;;;2.13;1.83;;;;;;;9.62;100.00;98298.44;5092749;28;20266;-64
2021/05/27 05:04:52;;;;;;;3.00;2.50;;;;;;;9.72;100.00;98308.31;5092691;28;20774;-63
2021/05/27 05:07:18;;;;;;;2.57;2.10;;;;;;;9.97;100.00;98310.25;5092612;28;20229;-64
2021/05/27 05:09:45;;;;;;;2.87;2.00;;;;;;;10.76;100.00;98315.53;5092751;28;20706;-63
2021/05/27 05:12:11;;;;;;;2.40;1.73;;;;;;;11.61;96.58;98321.13;5092718;28;20248;-64
2021/05/27 05:14:37;;;;;;;1.80;1.70;;;;;;;12.71;89.33;98319.16;5092703;28;20562;-64
2021/05/27 05:17:03;;;;;;;1.80;1.70;;;;;;;13.42;77.97;98331.31;5092929;28;20309;-65
2021/05/27 05:19:30;;;;;;;2.87;2.00;;;;;;;13.73;75.48;98317.34;5092535;28;20218;-65
2021/05/27 05:21:57;;;;;;;3.93;1.90;;;;;;;13.95;72.90;98329.75;5092603;28;20215;-65
2021/05/27 05:24:23;;;;;;;2.30;1.60;;;;;;;14.23;71.34;98318.66;5091321;28;20218;-65
2021/05/27 05:26:49;;;;;;;2.03;1.83;;;;;;;14.93;69.68;98328.69;5092694;28;20230;-65
2021/05/27 05:29:15;;;;;;;2.63;1.40;;;;;;;15.74;66.32;98332.31;5092502;28;20728;-64
2021/05/27 05:31:41;;;;;;;3.40;1.97;;;;;;;16.14;63.38;98331.34;5092503;28;20584;-64
2021/05/27 05:34:07;;;;;;;2.17;1.70;;;;;;;16.43;61.49;98332.31;5092670;28;20220;-64
2021/05/27 05:36:33;;;;;;;2.57;1.63;;;;;;;16.62;61.76;98336.81;5096391;28;20244;-64
2021/05/27 05:38:59;;;;;;;2.13;1.70;;;;;;;16.39;60.91;98336.22;5096131;28;20218;-64
2021/05/27 05:41:25;;;;;;;1.70;1.60;;;;;;;15.55;64.04;98342.03;5096141;28;20234;-64
2021/05/27 05:43:51;;;;;;;2.07;1.53;;;;;;;14.84;66.94;98344.59;5095934;28;20220;-64
2021/05/27 05:46:17;;;;;;;2.50;1.60;;;;;;;14.16;70.74;98344.84;5095812;28;20227;-64
2021/05/27 05:48:43;;;;;;;4.10;1.70;;;;;;;13.49;72.97;98344.94;5094313;28;20303;-64
2021/05/27 05:51:09;;;;;;;2.07;1.70;;;;;;;13.03;76.12;98350.28;5096264;28;20777;-64
2021/05/27 05:53:37;;;;;;;3.00;1.80;;;;;;;13.33;76.75;98341.81;5096209;28;20216;-64
2021/05/27 05:56:04;;;;;;;2.10;1.90;;;;;;;14.09;75.89;98343.66;5096174;28;20211;-64
2021/05/27 05:58:30;;;;;;;2.80;1.60;;;;;;;15.45;70.78;98335.81;5096142;28;20207;-65
2021/05/27 06:00:56;;;;;;;2.17;1.50;;;;;;;16.14;63.95;98336.69;5095950;28;20209;-64
2021/05/27 06:03:23;;;;;;;1.60;1.50;;;;;;;17.12;61.50;98331.22;5095563;28;20203;-64
2021/05/27 06:05:49;;;;;;;2.27;1.60;;;;;;;18.00;58.73;98346.00;5095992;28;20576;-64
2021/05/27 06:08:15;;;;;;;2.00;1.50;;;;;;;18.15;54.98;98339.16;5095608;28;20343;-63
2021/05/27 06:10:42;;;;;;;2.80;1.53;;;;;;;17.98;55.64;98333.75;5095639;28;20296;-64
2021/05/27 06:13:08;;;;;;;1.83;1.30;;;;;;;18.20;54.56;98341.38;5095790;28;20244;-64
2021/05/27 06:15:34;;;;;;;1.40;1.30;;;;;;;18.16;54.53;98337.31;5094027;28;20209;-64
2021/05/27 06:18:01;;;;;;;4.13;1.40;;;;;;;17.05;58.21;98342.59;5095409;28;20265;-64
2021/05/27 06:20:29;;;;;;;1.60;1.50;;;;;;;16.25;61.89;98341.94;5095474;28;20232;-64
2021/05/27 06:22:55;;;;;;;2.73;1.40;;;;;;;17.05;57.84;98339.94;5095433;28;20218;-63
2021/05/27 06:25:23;;;;;;;2.33;1.20;;;;;;;17.95;56.04;98345.56;5095348;28;20267;-64
2021/05/27 06:27:50;;;;;;;2.20;1.40;;;;;;;18.78;53.34;98346.25;5095448;28;20230;-64
2021/05/27 06:30:18;;;;;;;1.47;1.37;;;;;;;18.85;51.88;98346.50;5095121;28;20605;-64
2021/05/27 06:32:44;;;;;;;1.83;1.10;;;;;;;19.29;51.29;98349.16;5095042;28;20252;-65
2021/05/27 06:35:12;;;;;;;2.23;1.23;;;;;;;19.62;49.76;98358.28;5095242;28;20206;-64
2021/05/27 06:37:40;;;;;;;3.93;1.47;;;;;;;19.45;49.37;98346.56;5095358;28;20211;-64
2021/05/27 06:40:09;;;;;;;1.27;1.17;;;;;;;19.74;48.32;98355.16;5094888;28;20630;-64
2021/05/27 06:42:36;;;;;;;5.00;1.30;;;;;;;19.37;48.22;98357.25;5093617;28;20253;-64
2021/05/27 06:45:04;;;;;;;1.50;1.40;;;;;;;18.37;50.90;98360.22;5094591;28;20695;-64
2021/05/27 06:47:30;;;;;;;2.57;1.20;;;;;;;18.28;51.72;98358.38;5093192;28;20703;-64
2021/05/27 06:49:56;;;;;;;2.37;1.30;;;;;;;18.24;51.19;98350.78;5094883;28;20210;-64
2021/05/27 06:52:22;;;;;;;3.13;1.70;;;;;;;18.84;49.51;98361.72;5094769;28;20217;-64
2021/05/27 06:54:48;;;;;;;2.30;1.07;;;;;;;19.52;47.15;98349.50;5094126;28;20210;-64
2021/05/27 06:57:14;;;;;;;2.10;1.10;;;;;;;19.63;48.17;98355.44;5093679;28;20235;-64
2021/05/27 06:59:40;;;;;;;1.77;1.13;;;;;;;18.91;48.21;98362.81;5093734;28;20260;-64
2021/05/27 07:02:07;;;;;;;3.90;1.13;;;;;;;17.57;50.15;98364.41;5093943;28;20207;-64
2021/05/27 07:04:33;;;;;;;1.40;1.00;;;;;;;16.68;53.75;98361.16;5094736;28;20217;-65
2021/05/27 07:06:59;;;;;;;2.13;1.03;;;;;;;16.24;55.87;98368.72;5092632;28;20230;-64
2021/05/27 07:09:25;;;;;;;2.23;1.00;;;;;;;15.82;56.79;98367.13;5094527;28;20248;-64
2021/05/27 07:11:51;;;;;;;1.60;1.10;;;;;;;15.45;59.21;98373.94;5094570;28;20300;-64
2021/05/27 07:14:17;;;;;;;1.67;1.40;;;;;;;15.04;59.01;98375.69;5093999;28;20221;-64
2021/05/27 07:16:43;;;;;;;1.57;1.20;;;;;;;14.50;61.65;98377.56;5093912;28;20210;-64
2021/05/27 07:19:10;;;;;;;1.70;1.43;;;;;;;14.21;60.98;98384.38;5093626;28;20286;-64
2021/05/27 07:21:36;;;;;;;1.30;1.20;;;;;;;14.19;62.28;98378.34;5092101;28;20241;-64
2021/05/27 07:24:02;;;;;;;2.50;1.60;;;;;;;13.99;65.03;98371.91;5092964;28;20220;-64
2021/05/27 07:26:28;;;;;;;4.57;2.47;;;;;;;13.89;65.92;98370.09;5093457;28;20258;-64
2021/05/27 07:28:54;;;;;;;1.70;1.60;;;;;;;13.87;65.95;98367.56;5092536;28;20282;-64
2021/05/27 07:31:20;;;;;;;2.10;1.50;;;;;;;14.06;65.92;98369.63;5089291;28;20212;-65
2021/05/27 07:33:46;;;;;;;2.77;1.60;;;;;;;14.18;64.31;98368.66;5090479;28;20678;-65
2021/05/27 07:36:13;;;;;;;2.03;1.20;;;;;;;14.29;66.00;98368.69;5091872;28;20251;-64
2021/05/27 07:38:39;;;;;;;2.23;1.87;;;;;;;14.54;66.67;98373.69;5091061;28;20296;-64
2021/05/27 07:41:06;;;;;;;3.97;1.37;;;;;;;14.80;62.94;98367.09;5090307;28;20206;-64
2021/05/27 07:43:32;;;;;;;1.87;1.20;;;;;;;15.13;61.62;98366.94;5091567;28;20215;-64
2021/05/27 07:45:59;;;;;;;1.87;1.10;;;;;;;15.32;61.95;98359.06;5091141;28;20718;-65
2021/05/27 07:48:25;;;;;;;1.73;1.17;;;;;;;15.32;60.68;98361.75;5091206;28;20577;-64
2021/05/27 07:50:51;;;;;;;1.67;1.30;;;;;;;15.20;59.50;98355.66;5091266;28;20207;-65
2021/05/27 07:53:20;;;;;;;2.13;1.23;;;;;;;14.87;60.13;98360.28;5091109;28;20299;-65
2021/05/27 07:55:46;;;;;;;1.30;1.20;;;;;;;14.66;62.25;98367.38;5091434;28;20558;-63
2021/05/27 07:58:12;;;;;;;1.47;1.27;;;;;;;14.50;63.29;98361.59;5090787;28;20218;-64
2021/05/27 08:00:40;;;;;;;3.37;1.30;;;;;;;14.64;63.08;98361.31;5089859;28;20252;-65
2021/05/27 08:03:06;;;;;;;1.63;1.03;;;;;;;14.86;61.66;98358.59;5092166;28;20220;-64
2021/05/27 08:05:32;;;;;;;3.23;1.27;;;;;;;15.16;60.61;98361.38;5091269;28;20214;-64
2021/05/27 08:07:58;;;;;;;2.23;1.20;;;;;;;15.20;59.21;98362.78;5091462;28;20266;-64
2021/05/27 08:10:25;;;;;;;2.83;1.80;;;;;;;15.36;58.70;98365.88;5092116;28;20568;-64
2021/05/27 08:12:51;;;;;;;1.60;1.23;;;;;;;15.37;58.45;98365.75;5091572;28;20209;-64
2021/05/27 08:15:17;;;;;;;4.03;1.30;;;;;;;15.39;57.65;98360.31;5091768;28;20231;-64
2021/05/27 08:17:43;;;;;;;3.83;1.87;;;;;;;15.41;57.79;98366.34;5091676;28;20214;-64
2021/05/27 08:20:10;;;;;;;2.60;1.57;;;;;;;15.44;58.52;98366.06;5091768;28;20209;-63
2021/05/27 08:22:36;;;;;;;1.70;1.13;;;;;;;15.44;57.49;98366.06;5087732;28;20236;-64
2021/05/27 08:25:03;;;;;;;3.13;1.23;;;;;;;15.37;57.83;98367.56;5090874;28;20217;-64
2021/05/27 08:27:30;;;;;;;1.20;1.00;;;;;;;15.46;59.12;98364.13;5089675;28;20237;-63
2021/05/27 08:29:57;;;;;;;1.63;1.20;;;;;;;15.84;57.88;98359.88;5091421;28;20300;-63
2021/05/27 08:32:23;;;;;;;2.13;1.13;;;;;;;16.18;55.59;98356.78;5091659;28;20211;-64
2021/05/27 08:34:49;;;;;;;2.07;1.43;;;;;;;16.41;53.98;98350.25;5090902;28;20316;-65
2021/05/27 08:37:15;;;;;;;3.33;1.60;;;;;;;16.36;53.38;98367.63;5090145;28;20210;-63
2021/05/27 08:39:41;;;;;;;2.53;1.20;;;;;;;16.25;53.65;98355.25;5090326;28;20207;-64
2021/05/27 08:42:08;;;;;;;4.60;1.20;;;;;;;16.22;52.70;98355.50;5090417;28;20237;-65
2021/05/27 08:44:35;;;;;;;1.73;1.00;;;;;;;16.25;54.85;98357.06;5090813;28;20209;-64
2021/05/27 08:47:02;;;;;;;2.83;1.20;;;;;;;16.18;53.76;98359.44;5089688;28;20321;-65
2021/05/27 08:49:29;;;;;;;1.20;1.10;;;;;;;16.24;54.91;98348.25;5090052;28;20236;-65
2021/05/27 08:51:55;;;;;;;3.20;1.57;;;;;;;16.24;54.92;98348.25;5089614;28;20229;-63
2021/05/27 08:54:21;;;;;;;2.13;1.10;;;;;;;16.45;54.40;98353.53;5088230;28;20665;-64
2021/05/27 08:56:47;;;;;;;3.97;1.83;;;;;;;16.74;51.98;98357.94;5089366;28;20749;-65
2021/05/27 08:59:13;;;;;;;1.27;1.13;;;;;;;17.19;52.38;98353.72;5089207;28;20230;-65
2021/05/27 09:02:02;;;;;;;1.37;0.93;;;;;;;17.45;50.74;98357.53;5090361;28;20267;-65
2021/05/27 09:04:28;;;;;;;2.33;1.00;;;;;;;17.45;48.17;98360.22;5090351;28;20214;-64
2021/05/27 09:06:54;;;;;;;0.83;0.80;;;;;;;17.37;48.37;98368.06;5090535;28;20231;-64
2021/05/27 09:09:20;;;;;;;2.07;1.37;;;;;;;17.48;48.50;98357.25;5091395;28;20671;-64
2021/05/27 09:11:46;;;;;;;7.93;1.83;;;;;;;17.23;47.50;98363.16;5095320;28;20206;-65
2021/05/27 09:14:13;;;;;;;2.93;1.20;;;;;;;17.03;49.47;98364.16;5095033;28;20623;-64
2021/05/27 09:16:55;;;;;;;1.53;1.00;;;;;;;16.38;50.25;98371.91;5095815;28;20268;-62
2021/05/27 09:19:22;;;;;;;2.20;1.17;;;;;;;15.95;51.81;98373.09;5094868;28;20274;-63
2021/05/27 09:21:48;;;;;;;3.73;1.13;;;;;;;15.64;53.06;98376.72;5095423;28;20210;-63
2021/05/27 09:24:14;;;;;;;1.47;0.97;;;;;;;15.46;54.15;98380.94;5095044;28;20630;-64
2021/05/27 09:26:51;;;;;;;2.23;1.20;;;;;;;15.46;53.14;98372.97;5095141;28;20233;-64
2021/05/27 09:29:17;;;;;;;1.50;1.07;;;;;;;15.58;54.34;98379.06;5095173;28;20668;-64
2021/05/27 09:31:56;;;;;;;1.60;1.50;;;;;;;15.61;54.94;98384.13;5095634;28;20281;-64
2021/05/27 09:34:40;;;;;;;1.40;1.20;;;;;;;15.88;52.01;98387.09;5094063;28;20643;-63
2021/05/27 09:37:06;;;;;;;1.83;1.40;;;;;;;16.32;52.59;98383.06;5094337;28;20209;-65
2021/05/27 09:39:39;;;;;;;2.03;1.20;;;;;;;16.91;48.82;98383.94;5092940;28;20228;-64
2021/05/27 09:42:08;;;;;;;4.33;1.40;;;;;;;17.21;47.54;98374.94;5092740;28;20777;-65
2021/05/27 09:44:35;;;;;;;1.87;1.00;;;;;;;17.41;49.22;98371.31;5093267;28;20214;-65
2021/05/27 09:47:01;;;;;;;3.33;1.93;;;;;;;17.71;48.88;98377.31;5091549;28;20255;-65
2021/05/27 09:49:28;;;;;;;1.87;0.80;;;;;;;17.96;47.08;98382.03;5093005;28;20211;-65
2021/05/27 09:51:56;;;;;;;1.03;0.90;;;;;;;17.90;46.93;98384.44;5093447;28;20210;-65
2021/05/27 09:54:22;;;;;;;1.67;1.20;;;;;;;17.42;47.58;98387.19;5093356;28;20206;-65
2021/05/27 09:56:49;;;;;;;1.27;1.07;;;;;;;17.26;47.79;98392.22;5094948;28;20518;-66
2021/05/27 09:59:16;;;;;;;1.03;0.97;;;;;;;17.05;49.93;98388.00;5094759;28;20207;-65
2021/05/27 10:02:13;;;;;;;2.37;1.30;;;;;;;16.71;49.81;98392.06;5094689;28;20301;-65
2021/05/27 10:05:03;;;;;;;1.57;1.13;;;;;;;16.14;51.14;98400.69;5094922;28;20346;-65
2021/05/27 10:07:37;;;;;;;2.53;1.30;;;;;;;15.98;52.32;98398.63;5095044;28;20238;-64
2021/05/27 10:10:07;;;;;;;3.40;1.70;;;;;;;16.12;52.13;98390.31;5094996;28;20217;-65
2021/05/27 10:12:38;;;;;;;2.97;1.40;;;;;;;16.26;51.88;98391.63;5094412;28;20228;-64
2021/05/27 10:15:06;;;;;;;2.83;1.43;;;;;;;16.19;52.12;98398.47;5093799;28;20214;-65
2021/05/27 10:17:33;;;;;;;2.20;1.63;;;;;;;15.93;53.64;98398.19;5094681;28;20740;-64
2021/05/27 10:20:00;;;;;;;3.13;1.40;;;;;;;15.75;54.90;98399.78;5094760;28;20209;-65
2021/05/27 10:22:26;;;;;;;8.67;2.27;;;;;;;15.58;55.69;98395.88;5094746;28;20218;-64
2021/05/27 10:24:53;;;;;;;3.67;1.50;;;;;;;15.49;56.46;98406.47;5094954;28;20554;-65
2021/05/27 10:27:19;;;;;;;2.83;1.50;;;;;;;15.41;56.24;98411.63;5094809;28;20260;-65
2021/05/27 10:29:46;;;;;;;2.10;1.20;;;;;;;15.58;55.63;98400.38;5094966;28;20255;-63
2021/05/27 10:32:12;;;;;;;4.50;1.60;;;;;;;15.92;55.38;98399.16;5094590;28;20702;-64
2021/05/27 10:34:45;;;;;;;2.63;1.40;;;;;;;16.32;54.08;98392.88;5094697;28;20217;-63
2021/05/27 10:37:12;;;;;;;1.60;1.50;;;;;;;16.73;53.35;98392.75;5094855;28;20212;-64
2021/05/27 10:39:39;;;;;;;3.23;1.43;;;;;;;17.07;51.61;98391.41;5092872;28;20213;-64
2021/05/27 10:42:06;;;;;;;4.10;2.20;;;;;;;17.47;52.21;98390.31;5094347;28;20632;-64
2021/05/27 10:44:32;;;;;;;5.23;1.80;;;;;;;17.64;50.82;98392.25;5094581;28;20271;-64
2021/05/27 10:47:19;;;;;;;2.00;1.40;;;;;;;17.67;51.24;98383.94;5094178;28;20249;-64
2021/05/27 10:49:56;;;;;;;2.30;2.10;;;;;;;17.68;51.57;98382.94;5094111;28;20210;-64
2021/05/27 10:52:51;;;;;;;1.87;1.37;;;;;;;17.74;51.00;98386.88;5093936;28;20211;-64
2021/05/27 10:55:50;;;;;;;1.63;1.23;;;;;;;17.90;50.83;98390.63;5093590;28;20261;-64
2021/05/27 10:58:16;;;;;;;2.60;1.27;;;;;;;17.77;50.55;98386.56;5093294;28;20215;-64
2021/05/27 11:00:48;;;;;;;3.73;1.60;;;;;;;17.67;49.93;98385.78;5093671;28;20253;-64
2021/05/27 11:03:48;;;;;;;3.83;1.50;;;;;;;17.66;49.66;98384.91;5093413;28;20301;-64
2021/05/27 11:06:22;;;;;;;1.90;1.40;;;;;;;17.65;48.86;98377.03;5091383;28;20726;-64
2021/05/27 11:09:28;;;;;;;8.10;1.87;;;;;;;17.73;50.43;98369.97;5093606;28;20223;-64
2021/05/27 11:11:56;;;;;;;2.13;1.50;;;;;;;17.82;51.49;98374.47;5093067;28;20267;-64
2021/05/27 11:14:24;;;;;;;2.57;1.30;;;;;;;18.05;49.51;98370.44;5093164;28;20211;-64
2021/05/27 11:17:24;;;;;;;4.97;2.27;;;;;;;18.08;47.15;98380.88;5092808;28;20253;-64
2021/05/27 11:19:53;;;;;;;4.23;1.50;;;;;;;18.16;46.71;98377.47;5093094;28;20214;-64
2021/05/27 11:22:46;;;;;;;3.33;1.40;;;;;;;18.04;46.64;98375.97;5093381;28;20221;-64
2021/05/27 11:25:36;;;;;;;1.80;1.17;;;;;;;18.09;49.32;98369.16;5092844;28;20264;-64
2021/05/27 11:28:25;;;;;;;1.57;1.30;;;;;;;18.35;47.30;98372.88;5091558;28;20238;-64
2021/05/27 11:30:56;;;;;;;3.47;1.30;;;;;;;18.27;47.48;98378.09;5091430;28;20211;-64
2021/05/27 11:33:40;;;;;;;2.37;1.50;;;;;;;17.95;48.08;98380.34;5089904;28;20218;-64
2021/05/27 11:36:22;;;;;;;2.80;1.20;;;;;;;17.69;47.56;98379.28;5091997;28;20210;-64
2021/05/27 11:38:48;;;;;;;1.23;1.13;;;;;;;17.54;48.78;98380.72;5091887;28;20225;-64
2021/05/27 11:41:18;;;;;;;2.07;1.60;;;;;;;17.50;50.90;98371.28;5091350;28;20530;-64
2021/05/27 11:43:47;;;;;;;2.13;1.93;;;;;;;17.61;50.69;98381.81;5091188;28;20289;-64